Time;durP1;ratioP1;P1;durP2;ratioP2;P2;SDS_P1;SDS_P2;PMS_P1;PMS_P2;Temp;Humidity;BMP_temperature;BMP_pressure;BME280_temperature;BME280_humidity;BME280_pressure;Samples;Min_cycle;Max_cycle;Signal;HPM_P1;HPM_P2
2021/06/23 00:00:36;;;;;;;20.77;18.80;;;17.10;99.90;;;;;;5044711;28;20455;-78
2021/06/23 00:03:03;;;;;;;19.13;17.17;;;17.10;99.90;;;;;;5044460;28;20478;-79
2021/06/23 00:05:30;;;;;;;18.17;16.27;;;17.10;99.90;;;;;;5044000;28;20473;-78
2021/06/23 00:07:58;;;;;;;18.20;15.90;;;17.10;99.90;;;;;;5043751;28;20534;-78
2021/06/23 00:10:25;;;;;;;17.40;15.70;;;17.10;99.90;;;;;;5043199;28;20470;-79
2021/06/23 00:12:54;;;;;;;17.70;15.83;;;17.10;99.90;;;;;;5067206;22;20490;-77
2021/06/23 00:15:22;;;;;;;17.00;15.20;;;17.10;99.90;;;;;;5033148;28;20510;-77
2021/06/23 00:17:49;;;;;;;18.77;14.77;;;17.10;99.90;;;;;;5015173;28;20567;-76
2021/06/23 00:20:16;;;;;;;18.70;16.80;;;17.10;99.90;;;;;;5013788;28;20588;-77
2021/06/23 00:22:43;;;;;;;18.03;16.17;;;17.10;99.90;;;;;;5015344;28;20526;-78
2021/06/23 00:25:13;;;;;;;19.93;16.57;;;17.10;99.90;;;;;;5016354;28;20513;-76
2021/06/23 00:27:40;;;;;;;20.33;17.20;;;17.00;99.90;;;;;;5014516;28;20483;-76
2021/06/23 00:30:08;;;;;;;17.60;15.70;;;17.00;99.90;;;;;;5018176;28;20455;-78
2021/06/23 00:32:39;;;;;;;19.70;17.50;;;17.00;99.90;;;;;;5019145;28;20551;-78
2021/06/23 00:35:07;;;;;;;19.43;17.40;;;17.00;99.90;;;;;;5026872;28;20470;-77
2021/06/23 00:37:34;;;;;;;20.23;17.40;;;17.00;99.90;;;;;;5029503;28;20448;-77
2021/06/23 00:40:01;;;;;;;18.83;16.90;;;17.10;99.90;;;;;;5020601;28;20982;-76
2021/06/23 00:42:29;;;;;;;20.57;18.37;;;17.20;99.90;;;;;;5018953;28;20555;-77
2021/06/23 00:44:57;;;;;;;20.37;17.63;;;17.10;99.90;;;;;;5017118;28;22446;-78
2021/06/23 00:47:26;;;;;;;18.47;16.60;;;17.10;99.90;;;;;;5013733;28;20486;-77
2021/06/23 00:49:53;;;;;;;18.67;16.77;;;17.10;99.90;;;;;;5013794;28;20497;-78
2021/06/23 00:52:20;;;;;;;21.80;18.07;;;17.10;99.90;;;;;;5013980;28;20430;-77
2021/06/23 00:54:49;;;;;;;19.43;17.40;;;17.10;99.90;;;;;;5014236;28;20503;-77
2021/06/23 00:57:17;;;;;;;21.50;17.20;;;17.10;99.90;;;;;;5014030;28;20455;-75
2021/06/23 00:59:46;;;;;;;19.57;17.20;;;17.10;99.90;;;;;;5020830;28;20453;-75
2021/06/23 01:02:14;;;;;;;25.43;17.53;;;17.10;99.90;;;;;;5015526;28;20438;-77
2021/06/23 01:04:41;;;;;;;17.10;15.30;;;17.10;99.90;;;;;;5013002;28;20485;-76
2021/06/23 01:07:08;;;;;;;19.00;17.20;;;17.10;99.90;;;;;;5012636;28;20574;-76
2021/06/23 01:09:35;;;;;;;18.63;16.63;;;17.10;99.90;;;;;;5013419;28;20465;-76
2021/06/23 01:12:21;;;;;;;17.53;15.73;;;17.10;99.90;;;;;;5013409;28;20487;-76
2021/06/23 01:14:51;;;;;;;16.47;14.77;;;17.00;99.90;;;;;;5012772;28;20856;-75
2021/06/23 01:17:19;;;;;;;16.33;14.40;;;17.10;99.90;;;;;;5013248;28;20455;-76
2021/06/23 01:19:46;;;;;;;20.10;16.03;;;17.00;99.90;;;;;;5013376;28;20545;-76
2021/06/23 01:22:16;;;;;;;17.57;15.23;;;17.10;99.90;;;;;;5013572;28;20459;-76
2021/06/23 01:24:44;;;;;;;19.20;15.60;;;17.00;99.90;;;;;;5012845;28;20479;-77
2021/06/23 01:27:12;;;;;;;16.20;13.93;;;17.00;99.90;;;;;;5013015;28;20531;-77
2021/06/23 01:29:39;;;;;;;20.60;15.97;;;17.00;99.90;;;;;;5013101;28;20803;-74
2021/06/23 01:32:08;;;;;;;16.80;15.07;;;17.10;99.90;;;;;;5013111;28;20459;-77
2021/06/23 01:34:35;;;;;;;17.43;15.63;;;17.00;99.90;;;;;;5013566;28;20561;-78
2021/06/23 01:37:02;;;;;;;16.47;14.73;;;16.90;99.90;;;;;;5015452;28;20880;-75
2021/06/23 01:39:31;;;;;;;15.50;13.68;;;17.00;99.90;;;;;;5016385;28;20429;-77
2021/06/23 01:41:57;;;;;;;17.97;15.10;;;17.10;99.90;;;;;;5020785;28;20285;-77
2021/06/23 01:44:24;;;;;;;16.60;14.63;;;17.10;99.90;;;;;;5016836;28;20901;-77
2021/06/23 01:46:51;;;;;;;15.87;14.27;;;17.10;99.90;;;;;;5026084;28;20486;-77
2021/06/23 01:49:22;;;;;;;16.37;13.97;;;17.10;99.90;;;;;;5026391;28;20530;-76
2021/06/23 01:51:49;;;;;;;15.30;13.70;;;17.00;99.90;;;;;;5022096;28;20466;-76
2021/06/23 01:54:16;;;;;;;15.30;13.40;;;17.00;99.90;;;;;;5017030;28;20485;-76
2021/06/23 01:56:44;;;;;;;18.53;14.60;;;17.00;99.90;;;;;;5019594;28;20455;-78
2021/06/23 01:59:12;;;;;;;16.43;14.10;;;17.10;99.90;;;;;;5029742;28;20486;-78
2021/06/23 02:01:50;;;;;;;18.00;16.10;;;17.00;99.90;;;;;;5032913;28;20451;-76
2021/06/23 02:04:42;;;;;;;15.50;13.90;;;17.00;99.90;;;;;;5023276;28;20470;-77
2021/06/23 02:08:00;;;;;;;16.17;14.50;;;16.90;99.90;;;;;;5014780;28;20482;-78
2021/06/23 02:10:50;;;;;;;17.70;14.40;;;17.00;99.90;;;;;;4914269;29;20511;-77
2021/06/23 02:14:03;;;;;;;18.63;15.60;;;16.90;99.90;;;;;;5012687;28;20489;-77
2021/06/23 02:16:33;;;;;;;17.87;14.07;;;16.90;99.90;;;;;;5016121;28;20451;-78
2021/06/23 02:19:04;;;;;;;17.57;14.23;;;16.90;99.90;;;;;;5015648;28;20461;-78
2021/06/23 02:21:32;;;;;;;17.63;15.50;;;16.90;99.90;;;;;;5019967;28;20456;-77
2021/06/23 02:24:01;;;;;;;17.93;14.67;;;16.90;99.90;;;;;;5019972;28;20673;-77
2021/06/23 02:26:28;;;;;;;18.07;15.77;;;16.90;99.90;;;;;;5014826;28;20497;-77
2021/06/23 02:28:55;;;;;;;17.27;15.47;;;16.90;99.90;;;;;;5013668;28;20823;-77
2021/06/23 02:31:22;;;;;;;19.80;16.80;;;16.90;99.90;;;;;;5015677;28;20872;-76
2021/06/23 02:33:54;;;;;;;22.10;15.60;;;16.90;99.90;;;;;;5016527;28;20514;-77
2021/06/23 02:36:24;;;;;;;20.60;16.93;;;16.90;99.90;;;;;;5013600;28;20467;-76
2021/06/23 02:38:51;;;;;;;18.13;16.30;;;16.90;99.90;;;;;;5013088;28;20543;-76
2021/06/23 02:41:19;;;;;;;17.40;15.63;;;16.90;99.90;;;;;;5014610;28;20452;-77
2021/06/23 02:43:46;;;;;;;18.33;16.43;;;16.90;99.90;;;;;;5014699;28;20514;-77
2021/06/23 02:46:13;;;;;;;16.80;14.73;;;16.90;99.90;;;;;;5017416;28;20573;-77
2021/06/23 02:48:41;;;;;;;17.47;15.67;;;16.90;99.90;;;;;;5017955;28;20537;-77
2021/06/23 02:51:16;;;;;;;17.70;15.80;;;16.90;99.90;;;;;;5019123;28;20483;-78
2021/06/23 02:53:45;;;;;;;18.77;16.80;;;16.80;99.90;;;;;;5019612;28;20231;-79
2021/06/23 02:56:13;;;;;;;20.93;17.33;;;16.80;99.90;;;;;;5019934;28;20582;-79
2021/06/23 02:58:42;;;;;;;22.63;17.00;;;16.80;99.90;;;;;;5019631;28;20550;-81
2021/06/23 03:01:11;;;;;;;25.77;19.33;;;16.80;99.90;;;;;;5021353;28;20876;-83
2021/06/23 03:03:38;;;;;;;21.87;17.33;;;16.80;99.90;;;;;;5037088;28;20512;-80
2021/06/23 03:06:06;;;;;;;23.23;19.07;;;16.70;99.90;;;;;;5023262;28;20482;-78
2021/06/23 03:08:34;;;;;;;25.17;19.97;;;16.60;99.90;;;;;;5034857;28;20435;-82
2021/06/23 03:11:01;;;;;;;27.37;19.90;;;16.60;99.90;;;;;;5039662;28;20462;-81
2021/06/23 03:13:28;;;;;;;23.92;19.48;;;16.60;99.90;;;;;;5020254;28;21020;-78
2021/06/23 03:15:55;;;;;;;26.98;21.23;;;16.60;99.90;;;;;;5016977;28;20366;-78
2021/06/23 03:18:22;;;;;;;26.95;21.50;;;16.60;99.90;;;;;;5016580;28;20688;-78
2021/06/23 03:20:50;;;;;;;27.13;20.60;;;16.60;99.90;;;;;;5015848;28;20642;-78
2021/06/23 03:23:18;;;;;;;27.70;22.73;;;16.50;99.90;;;;;;5015480;28;20310;-78
2021/06/23 03:25:46;;;;;;;26.33;20.85;;;16.50;99.90;;;;;;5018169;28;20672;-78
2021/06/23 03:28:13;;;;;;;27.10;21.30;;;16.50;99.90;;;;;;5023119;28;20235;-78
2021/06/23 03:30:41;;;;;;;30.00;22.70;;;16.60;99.90;;;;;;5015587;28;20208;-77
2021/06/23 03:33:08;;;;;;;33.20;22.83;;;16.50;99.90;;;;;;5016141;28;20262;-77
2021/06/23 03:35:35;;;;;;;26.70;21.25;;;16.50;99.90;;;;;;5015565;28;20223;-77
2021/06/23 03:38:03;;;;;;;26.52;21.48;;;16.50;99.90;;;;;;5016026;28;20208;-78
2021/06/23 03:40:30;;;;;;;33.50;23.40;;;16.60;99.90;;;;;;5015077;28;20239;-78
2021/06/23 03:42:58;;;;;;;28.97;22.80;;;16.50;99.90;;;;;;5015160;28;20572;-78
2021/06/23 03:45:25;;;;;;;28.42;22.70;;;16.50;99.90;;;;;;5015158;28;20509;-78
2021/06/23 03:47:52;;;;;;;33.90;24.70;;;16.50;99.90;;;;;;5015156;28;20227;-78
2021/06/23 03:50:19;;;;;;;30.55;21.50;;;16.50;99.90;;;;;;5015665;28;20204;-78
2021/06/23 03:52:47;;;;;;;34.22;25.77;;;16.50;99.90;;;;;;5015297;28;20592;-78
2021/06/23 03:55:20;;;;;;;29.60;22.10;;;16.60;99.90;;;;;;5017938;28;20242;-79
2021/06/23 03:57:51;;;;;;;31.83;23.88;;;16.60;99.90;;;;;;5022254;28;20435;-78
2021/06/23 04:00:21;;;;;;;33.60;23.30;;;16.60;99.90;;;;;;5027322;28;20212;-80
2021/06/23 04:02:48;;;;;;;31.50;23.80;;;16.60;99.90;;;;;;5019182;28;20209;-80
2021/06/23 04:05:15;;;;;;;37.83;25.17;;;16.60;99.90;;;;;;5017899;28;20425;-82
2021/06/23 04:07:42;;;;;;;34.30;23.92;;;16.50;99.90;;;;;;5017251;28;20529;-79
2021/06/23 04:10:10;;;;;;;34.78;24.05;;;16.50;99.90;;;;;;5021177;28;20215;-79
2021/06/23 04:12:38;;;;;;;35.55;24.33;;;16.50;99.90;;;;;;5016276;28;20261;-78
2021/06/23 04:15:07;;;;;;;32.33;23.80;;;16.40;99.90;;;;;;5016908;28;20258;-78
2021/06/23 04:17:35;;;;;;;31.98;23.52;;;16.40;99.90;;;;;;5014733;28;20587;-78
2021/06/23 04:20:03;;;;;;;33.90;25.67;;;16.40;99.90;;;;;;5015599;28;20266;-77
2021/06/23 04:22:29;;;;;;;36.00;24.77;;;16.30;99.90;;;;;;5017076;28;20239;-77
2021/06/23 04:24:56;;;;;;;32.38;23.35;;;16.30;99.90;;;;;;5015119;28;20273;-77
2021/06/23 04:27:23;;;;;;;35.72;24.25;;;16.30;99.90;;;;;;5016553;28;20270;-78
2021/06/23 04:29:51;;;;;;;34.72;23.73;;;16.30;99.90;;;;;;5024861;28;20232;-78
2021/06/23 04:32:18;;;;;;;38.08;25.00;;;16.40;99.90;;;;;;5035801;28;20196;-79
2021/06/23 04:34:46;;;;;;;35.13;24.98;;;16.40;99.90;;;;;;5038172;28;20224;-78
2021/06/23 04:37:13;;;;;;;31.10;23.90;;;16.40;99.90;;;;;;5033330;28;20604;-78
2021/06/23 04:39:40;;;;;;;32.05;24.08;;;16.50;99.90;;;;;;5027458;28;20439;-77
2021/06/23 04:42:07;;;;;;;31.25;23.75;;;16.50;99.90;;;;;;5017326;28;20243;-78
2021/06/23 04:44:34;;;;;;;33.08;23.40;;;16.50;99.90;;;;;;5017358;28;20573;-77
2021/06/23 04:47:01;;;;;;;33.60;25.13;;;16.50;99.90;;;;;;5018436;28;20266;-77
2021/06/23 04:49:28;;;;;;;33.58;23.70;;;16.60;99.90;;;;;;5018718;28;20279;-77
2021/06/23 04:51:56;;;;;;;33.88;23.90;;;16.60;99.90;;;;;;5022772;28;20239;-77
2021/06/23 04:54:23;;;;;;;30.23;22.70;;;16.50;99.90;;;;;;5021768;28;20307;-78
2021/06/23 04:56:50;;;;;;;35.43;23.43;;;16.50;99.90;;;;;;5021917;28;20474;-81
2021/06/23 04:59:17;;;;;;;31.48;22.60;;;16.40;99.90;;;;;;5026183;28;20501;-79
2021/06/23 05:01:44;;;;;;;36.20;24.05;;;16.40;99.90;;;;;;5027026;28;20204;-79
2021/06/23 05:04:11;;;;;;;31.55;23.52;;;16.40;99.90;;;;;;5028715;28;20251;-80
2021/06/23 05:06:38;;;;;;;38.17;24.92;;;16.40;99.90;;;;;;5025675;28;20219;-80
2021/06/23 05:09:06;;;;;;;32.27;24.83;;;16.40;99.90;;;;;;5027102;28;20250;-79
2021/06/23 05:11:35;;;;;;;31.93;24.03;;;16.40;99.90;;;;;;5025740;28;20831;-77
2021/06/23 05:14:02;;;;;;;33.73;24.37;;;16.40;99.90;;;;;;5019997;28;20493;-78
2021/06/23 05:16:31;;;;;;;32.90;24.13;;;16.40;99.90;;;;;;5025375;28;20479;-78
2021/06/23 05:18:59;;;;;;;39.97;26.73;;;16.40;99.90;;;;;;5016525;28;20486;-78
2021/06/23 05:21:26;;;;;;;35.72;25.42;;;16.40;99.90;;;;;;5016559;28;20443;-77
2021/06/23 05:23:53;;;;;;;33.20;24.50;;;16.40;99.90;;;;;;5015671;28;20289;-77
2021/06/23 05:26:21;;;;;;;33.07;25.60;;;16.40;99.90;;;;;;5016941;28;20505;-78
2021/06/23 05:28:48;;;;;;;31.20;24.97;;;16.40;99.90;;;;;;5025198;28;20825;-78
2021/06/23 05:31:15;;;;;;;33.17;26.35;;;16.40;99.90;;;;;;5023327;28;20481;-78
2021/06/23 05:33:42;;;;;;;35.00;25.20;;;16.40;99.90;;;;;;5015576;28;20224;-79
2021/06/23 05:36:09;;;;;;;29.35;24.05;;;16.40;99.90;;;;;;5016286;28;20212;-79
2021/06/23 05:38:36;;;;;;;35.33;26.37;;;16.40;99.90;;;;;;5015488;28;20208;-78
2021/06/23 05:41:03;;;;;;;28.98;24.10;;;16.40;99.90;;;;;;5021113;28;20473;-80
2021/06/23 05:43:31;;;;;;;33.97;24.77;;;16.40;99.90;;;;;;5028753;28;20227;-79
2021/06/23 05:45:58;;;;;;;27.92;23.85;;;16.50;99.90;;;;;;5024658;28;20454;-78
2021/06/23 05:48:25;;;;;;;28.33;23.13;;;16.60;99.90;;;;;;5014461;28;20780;-77
2021/06/23 05:50:53;;;;;;;31.67;25.03;;;16.60;99.90;;;;;;5014550;28;20481;-78
2021/06/23 05:53:20;;;;;;;29.23;22.57;;;16.60;99.90;;;;;;5014673;28;20453;-78
2021/06/23 05:55:47;;;;;;;29.00;24.23;;;16.60;99.90;;;;;;5015167;28;20551;-76
2021/06/23 05:58:14;;;;;;;26.03;21.30;;;16.70;99.90;;;;;;5017840;28;20495;-77
2021/06/23 06:00:42;;;;;;;24.53;21.50;;;16.80;99.90;;;;;;5028055;28;20539;-78
2021/06/23 06:03:09;;;;;;;25.83;22.53;;;16.90;99.90;;;;;;5016254;28;20483;-78
2021/06/23 06:05:36;;;;;;;24.00;21.10;;;16.90;99.90;;;;;;5031151;28;20431;-78
2021/06/23 06:08:03;;;;;;;23.03;20.53;;;17.10;99.90;;;;;;5017331;28;20589;-76
2021/06/23 06:10:30;;;;;;;22.90;20.40;;;17.20;99.90;;;;;;5023641;28;20491;-77
2021/06/23 06:12:57;;;;;;;27.93;21.93;;;17.20;99.90;;;;;;5014423;28;20458;-78
2021/06/23 06:15:24;;;;;;;27.17;22.23;;;17.10;99.90;;;;;;5013080;28;20870;-77
2021/06/23 06:17:52;;;;;;;24.27;21.63;;;17.00;99.90;;;;;;5012081;28;20547;-77
2021/06/23 06:20:19;;;;;;;23.60;20.63;;;17.20;99.90;;;;;;5014473;28;20812;-78
2021/06/23 06:22:46;;;;;;;25.37;21.70;;;17.10;99.90;;;;;;5016234;28;20489;-78
2021/06/23 06:25:14;;;;;;;24.83;21.60;;;17.10;99.90;;;;;;5017380;28;20505;-79
2021/06/23 06:27:41;;;;;;;26.10;21.80;;;17.30;99.90;;;;;;5016754;28;21010;-78
2021/06/23 06:30:09;;;;;;;28.50;22.47;;;17.20;99.90;;;;;;5017415;28;20467;-78
2021/06/23 06:32:36;;;;;;;28.33;23.90;;;17.10;99.90;;;;;;5019435;28;20486;-79
2021/06/23 06:35:05;;;;;;;24.73;22.10;;;17.20;99.90;;;;;;5019139;28;20524;-79
2021/06/23 06:37:32;;;;;;;25.80;21.90;;;17.20;99.90;;;;;;5018819;28;20426;-78
2021/06/23 06:40:00;;;;;;;28.17;22.93;;;17.30;99.90;;;;;;5021099;28;20510;-79
2021/06/23 06:42:27;;;;;;;26.60;22.87;;;17.30;99.90;;;;;;5021762;28;20457;-79
2021/06/23 06:44:54;;;;;;;24.93;21.37;;;17.20;99.90;;;;;;5025851;28;20977;-79
2021/06/23 06:47:20;;;;;;;31.87;24.57;;;17.40;99.90;;;;;;5013421;28;20535;-79
2021/06/23 06:49:49;;;;;;;26.57;22.00;;;17.40;99.90;;;;;;5001659;28;20503;-79
2021/06/23 06:52:17;;;;;;;24.80;22.13;;;17.50;99.90;;;;;;5006834;28;21540;-78
2021/06/23 06:54:44;;;;;;;24.37;21.30;;;17.70;99.90;;;;;;5017251;28;20479;-78
2021/06/23 06:57:11;;;;;;;24.27;21.60;;;17.60;99.90;;;;;;5019084;28;20550;-79
2021/06/23 06:59:38;;;;;;;24.67;21.97;;;17.60;99.90;;;;;;5018021;28;20532;-78
2021/06/23 07:02:05;;;;;;;27.20;21.13;;;17.70;99.90;;;;;;5018503;28;20892;-77
2021/06/23 07:04:32;;;;;;;23.67;20.03;;;17.80;99.90;;;;;;5020023;28;20508;-78
2021/06/23 07:06:59;;;;;;;25.20;20.10;;;17.80;99.90;;;;;;5018721;28;20520;-79
2021/06/23 07:09:27;;;;;;;25.10;20.03;;;17.90;99.90;;;;;;5016051;28;20507;-78
2021/06/23 07:11:56;;;;;;;21.83;19.57;;;17.90;99.90;;;;;;5016500;28;20495;-80
2021/06/23 07:14:23;;;;;;;23.27;20.20;;;18.00;99.90;;;;;;5015318;28;21003;-77
2021/06/23 07:16:50;;;;;;;24.60;22.10;;;18.10;99.90;;;;;;5013428;28;20467;-78
2021/06/23 07:19:17;;;;;;;24.30;20.10;;;17.80;99.90;;;;;;5015405;28;20500;-78
2021/06/23 07:21:45;;;;;;;24.40;20.47;;;18.00;99.90;;;;;;5016269;28;21002;-78
2021/06/23 07:24:16;;;;;;;23.43;20.90;;;18.00;99.90;;;;;;5015559;28;20483;-78
2021/06/23 07:26:47;;;;;;;20.63;18.17;;;18.10;99.90;;;;;;5017251;28;20452;-78
2021/06/23 07:29:15;;;;;;;22.63;20.07;;;18.20;99.90;;;;;;5016406;28;20826;-79
2021/06/23 07:31:50;;;;;;;22.93;20.30;;;18.20;99.90;;;;;;5015982;28;20465;-79
2021/06/23 07:37:06;;;;;;;22.00;19.70;;;18.20;99.90;;;;;;5000943;28;20442;-78
2021/06/23 07:39:34;;;;;;;22.93;18.70;;;18.10;99.90;;;;;;5025525;28;20518;-79
2021/06/23 07:42:04;;;;;;;24.37;20.80;;;18.00;99.90;;;;;;5024315;28;20510;-77
2021/06/23 07:44:33;;;;;;;22.93;20.43;;;18.00;99.90;;;;;;5025569;28;20584;-83
2021/06/23 07:47:01;;;;;;;24.03;20.27;;;18.10;99.90;;;;;;5011098;28;20515;-78
2021/06/23 07:49:31;;;;;;;22.40;20.07;;;18.10;99.90;;;;;;5014289;28;20450;-78
2021/06/23 07:52:02;;;;;;;22.20;20.07;;;18.20;99.90;;;;;;5015166;28;20459;-79
2021/06/23 07:54:42;;;;;;;23.40;20.90;;;18.20;99.90;;;;;;5015404;28;20484;-78
2021/06/23 08:08:14;;;;;;;25.47;21.83;;;18.00;99.90;;;;;;5021638;28;20483;-78
2021/06/23 08:10:44;;;;;;;27.10;23.80;;;18.00;99.90;;;;;;5019682;28;20453;-79
2021/06/23 08:13:13;;;;;;;24.90;22.07;;;18.00;99.90;;;;;;5015737;28;20617;-77
2021/06/23 08:15:42;;;;;;;22.93;20.63;;;18.20;99.90;;;;;;5014593;28;20458;-77
2021/06/23 08:18:09;;;;;;;23.10;19.63;;;18.60;99.90;;;;;;5018557;28;20456;-77
2021/06/23 08:20:37;;;;;;;21.40;19.20;;;18.70;99.90;;;;;;5019781;28;20458;-76
2021/06/23 08:23:05;;;;;;;20.40;18.40;;;19.00;99.90;;;;;;5021538;28;20544;-78
2021/06/23 08:25:32;;;;;;;20.73;18.63;;;19.10;99.00;;;;;;5019958;28;20493;-77
2021/06/23 08:27:59;;;;;;;20.70;18.57;;;19.30;97.70;;;;;;5016650;28;20492;-77
2021/06/23 08:30:28;;;;;;;21.83;19.50;;;19.40;96.80;;;;;;5017309;28;20760;-76
2021/06/23 08:32:55;;;;;;;21.00;18.63;;;19.40;96.10;;;;;;5017940;28;20493;-77
2021/06/23 08:35:22;;;;;;;20.50;18.37;;;19.30;96.30;;;;;;5029232;28;20518;-77
2021/06/23 08:37:49;;;;;;;21.53;19.43;;;19.50;95.20;;;;;;5030890;28;20425;-77
2021/06/23 08:40:17;;;;;;;19.20;17.50;;;19.80;94.50;;;;;;5014086;28;20969;-77
2021/06/23 08:42:45;;;;;;;18.63;16.90;;;19.90;92.00;;;;;;5014024;28;20471;-77
2021/06/23 08:45:13;;;;;;;21.53;19.23;;;19.90;92.00;;;;;;5016846;28;20520;-77
2021/06/23 08:47:42;;;;;;;21.83;19.50;;;19.90;91.70;;;;;;5017925;28;21015;-77
2021/06/23 08:50:11;;;;;;;21.83;17.60;;;19.70;92.50;;;;;;5019766;28;20506;-79
2021/06/23 08:52:39;;;;;;;18.43;16.73;;;19.90;95.20;;;;;;5027190;28;20472;-77
2021/06/23 08:55:07;;;;;;;19.27;17.47;;;20.30;92.40;;;;;;5033504;28;20486;-79
2021/06/23 08:57:34;;;;;;;18.03;16.27;;;20.70;89.00;;;;;;5029443;28;20459;-79
2021/06/23 09:00:01;;;;;;;17.53;15.83;;;21.00;85.10;;;;;;5025323;28;20810;-77
2021/06/23 09:02:30;;;;;;;17.67;15.97;;;21.30;82.70;;;;;;5031963;28;20463;-79
2021/06/23 09:05:00;;;;;;;17.40;15.60;;;21.40;78.70;;;;;;5024134;28;20506;-78
2021/06/23 09:07:38;;;;;;;16.40;14.80;;;21.50;77.30;;;;;;5025100;28;20509;-77
2021/06/23 09:10:07;;;;;;;14.30;12.90;;;21.60;78.20;;;;;;5027516;28;20514;-78
2021/06/23 09:12:34;;;;;;;14.60;13.20;;;21.00;78.60;;;;;;5016922;28;20954;-79
2021/06/23 09:15:02;;;;;;;15.07;13.57;;;20.70;83.70;;;;;;5016894;28;20905;-78
2021/06/23 09:17:29;;;;;;;15.80;14.30;;;20.60;85.90;;;;;;5018229;28;20447;-79
2021/06/23 09:19:59;;;;;;;14.80;13.43;;;21.10;86.00;;;;;;5037639;28;20498;-79
2021/06/23 09:22:35;;;;;;;15.73;12.43;;;22.10;78.00;;;;;;5014797;28;20512;-77
2021/06/23 09:25:04;;;;;;;14.37;13.00;;;22.80;71.00;;;;;;5012319;28;21018;-77
2021/06/23 09:27:31;;;;;;;13.03;11.93;;;23.40;65.90;;;;;;5013815;28;20658;-77
2021/06/23 09:30:23;;;;;;;12.40;11.17;;;23.80;62.00;;;;;;5015336;28;20449;-78
2021/06/23 09:33:10;;;;;;;13.40;12.27;;;23.80;64.10;;;;;;4994682;28;20444;-77
2021/06/23 09:35:39;;;;;;;11.63;10.60;;;24.40;61.10;;;;;;4996414;28;20524;-78
2021/06/23 09:38:06;;;;;;;13.43;12.20;;;24.50;58.50;;;;;;4993834;28;20850;-78
2021/06/23 09:40:43;;;;;;;11.07;10.17;;;24.60;57.20;;;;;;4994439;28;20507;-78
2021/06/23 09:43:10;;;;;;;11.00;10.10;;;24.50;59.20;;;;;;4994351;28;20862;-77
2021/06/23 09:45:37;;;;;;;12.20;9.57;;;24.30;59.40;;;;;;4993758;28;20462;-78
2021/06/23 09:48:07;;;;;;;10.57;9.70;;;24.10;58.60;;;;;;4993665;28;20882;-77
2021/06/23 09:50:36;;;;;;;12.00;10.80;;;23.90;60.10;;;;;;4994131;28;20450;-76
2021/06/23 09:53:13;;;;;;;10.73;9.53;;;23.40;61.70;;;;;;4999369;28;21386;-77
2021/06/23 09:55:42;;;;;;;10.60;9.70;;;23.30;61.40;;;;;;4996440;28;20461;-77
2021/06/23 09:58:11;;;;;;;10.97;10.00;;;23.00;63.40;;;;;;4996739;28;20451;-77
2021/06/23 10:01:01;;;;;;;11.27;9.60;;;22.90;62.70;;;;;;4996866;28;20463;-77
2021/06/23 10:03:30;;;;;;;9.67;8.67;;;23.50;63.50;;;;;;4995055;28;20491;-77
2021/06/23 10:05:57;;;;;;;9.37;8.67;;;24.10;60.10;;;;;;4994663;28;20532;-77
2021/06/23 10:08:27;;;;;;;9.73;8.93;;;23.50;60.10;;;;;;4995712;28;20562;-78
2021/06/23 10:10:56;;;;;;;9.50;8.80;;;23.50;61.40;;;;;;4994533;28;20512;-78
2021/06/23 10:13:23;;;;;;;8.73;8.13;;;23.70;60.40;;;;;;4993657;28;20487;-77
2021/06/23 10:15:51;;;;;;;8.80;8.10;;;23.60;60.20;;;;;;4995132;28;20460;-77
2021/06/23 10:18:20;;;;;;;8.70;8.00;;;23.60;58.20;;;;;;4993722;28;21121;-76
2021/06/23 10:20:48;;;;;;;12.53;7.90;;;23.40;59.10;;;;;;4994638;28;20509;-76
2021/06/23 10:23:17;;;;;;;7.87;7.17;;;23.60;58.40;;;;;;5004944;28;20581;-76
2021/06/23 10:25:45;;;;;;;7.20;6.60;;;23.90;55.40;;;;;;4995395;28;20462;-77
2021/06/23 10:28:13;;;;;;;7.37;6.67;;;23.80;55.20;;;;;;4993130;28;20541;-77
2021/06/23 10:30:41;;;;;;;7.23;6.63;;;23.70;55.20;;;;;;4992950;28;20920;-78
2021/06/23 10:33:08;;;;;;;8.07;7.47;;;23.30;57.10;;;;;;4992650;28;20568;-76
2021/06/23 10:35:35;;;;;;;7.90;7.20;;;23.20;59.50;;;;;;4993778;28;20463;-78
2021/06/23 10:38:03;;;;;;;7.93;7.23;;;23.30;58.60;;;;;;4992966;28;20950;-77
2021/06/23 10:40:31;;;;;;;8.03;7.40;;;23.80;56.10;;;;;;4993209;28;20909;-77
2021/06/23 10:43:13;;;;;;;8.30;7.60;;;23.10;56.70;;;;;;4996027;28;20533;-77
2021/06/23 10:45:42;;;;;;;8.17;7.57;;;22.80;59.10;;;;;;4992416;28;20458;-77
2021/06/23 10:48:10;;;;;;;9.57;7.83;;;23.10;58.20;;;;;;4991605;28;20512;-77
2021/06/23 10:50:37;;;;;;;7.80;7.20;;;23.80;53.50;;;;;;4992810;28;20469;-76
2021/06/23 10:53:27;;;;;;;8.23;7.13;;;24.00;52.80;;;;;;4991630;28;20871;-77
2021/06/23 10:55:53;;;;;;;7.33;6.73;;;23.90;52.50;;;;;;4983925;28;20460;-77
2021/06/23 10:58:27;;;;;;;6.90;6.30;;;23.60;55.00;;;;;;4990460;28;20546;-76
2021/06/23 11:01:06;;;;;;;7.30;6.80;;;23.60;55.10;;;;;;4990865;28;20440;-77
2021/06/23 11:04:00;;;;;;;6.53;5.97;;;23.90;56.20;;;;;;4991901;28;20521;-76
2021/06/23 11:06:41;;;;;;;6.67;6.07;;;24.70;52.10;;;;;;4997020;28;20462;-77
2021/06/23 11:09:22;;;;;;;7.40;6.90;;;25.00;50.20;;;;;;4996136;28;20509;-78
2021/06/23 11:11:49;;;;;;;7.70;7.10;;;25.10;49.20;;;;;;4995562;28;20959;-77
2021/06/23 11:14:19;;;;;;;6.83;6.23;;;24.80;49.90;;;;;;4984693;28;20522;-77
2021/06/23 11:16:46;;;;;;;7.87;7.07;;;24.90;49.60;;;;;;4997804;28;20437;-76
2021/06/23 11:19:14;;;;;;;6.00;5.60;;;24.50;50.00;;;;;;4999591;28;20525;-78
2021/06/23 11:21:45;;;;;;;6.33;5.83;;;24.40;49.30;;;;;;4999145;28;20525;-76
2021/06/23 11:24:17;;;;;;;7.53;6.80;;;24.30;51.00;;;;;;5004059;28;20486;-77
2021/06/23 11:26:57;;;;;;;5.90;5.50;;;24.70;49.80;;;;;;5003079;28;20495;-77
2021/06/23 11:29:29;;;;;;;6.10;5.50;;;25.10;48.50;;;;;;4989059;28;21048;-77
2021/06/23 11:32:25;;;;;;;5.37;4.90;;;24.90;48.00;;;;;;4987962;28;20472;-78
2021/06/23 11:34:59;;;;;;;7.77;6.00;;;24.90;48.20;;;;;;4995861;28;20478;-77
2021/06/23 11:37:30;;;;;;;5.43;5.13;;;25.30;46.70;;;;;;5004342;28;20433;-78
2021/06/23 11:40:15;;;;;;;6.50;5.90;;;25.60;47.60;;;;;;4996591;28;20510;-78
2021/06/23 11:42:42;;;;;;;6.37;5.77;;;26.00;46.10;;;;;;4994888;28;20430;-76
2021/06/23 11:45:12;;;;;;;5.90;5.50;;;25.70;46.30;;;;;;5000446;28;20454;-77
2021/06/23 11:47:40;;;;;;;8.10;6.57;;;25.40;46.70;;;;;;5001303;28;20467;-77
2021/06/23 11:50:08;;;;;;;7.13;6.53;;;25.10;47.50;;;;;;5006271;28;20483;-76
2021/06/23 11:52:35;;;;;;;5.90;5.60;;;25.20;46.90;;;;;;5008146;28;20463;-78
2021/06/23 11:55:02;;;;;;;5.40;5.00;;;25.70;45.90;;;;;;4998357;28;20478;-78
2021/06/23 11:57:29;;;;;;;6.23;5.83;;;26.50;44.50;;;;;;5003016;28;20468;-78
2021/06/23 11:59:57;;;;;;;6.63;4.97;;;27.00;43.60;;;;;;5010252;28;20428;-77
2021/06/23 12:02:26;;;;;;;5.27;4.80;;;26.20;44.30;;;;;;4998034;28;20460;-78
2021/06/23 12:04:53;;;;;;;5.27;4.77;;;25.90;44.10;;;;;;4996777;28;20463;-76
2021/06/23 12:07:20;;;;;;;5.37;4.97;;;26.40;43.60;;;;;;4997630;28;20494;-79
2021/06/23 12:09:47;;;;;;;5.30;4.80;;;26.30;44.40;;;;;;5001694;28;20505;-78
2021/06/23 12:12:14;;;;;;;5.77;5.23;;;26.40;43.50;;;;;;4998411;28;20880;-76
2021/06/23 12:14:41;;;;;;;5.93;5.50;;;26.60;43.10;;;;;;5056318;22;20585;-80
2021/06/23 12:17:08;;;;;;;5.90;5.50;;;26.80;42.70;;;;;;5069111;28;20443;-79
2021/06/23 12:19:44;;;;;;;6.20;5.80;;;26.90;42.70;;;;;;5073460;28;20467;-80
2021/06/23 12:22:11;;;;;;;6.30;5.90;;;26.60;43.30;;;;;;5073750;28;20446;-81
2021/06/23 12:25:04;;;;;;;5.70;5.30;;;26.20;43.20;;;;;;5074264;28;20976;-81
2021/06/23 12:27:31;;;;;;;6.20;5.63;;;25.90;44.10;;;;;;5070765;28;20484;-80
2021/06/23 12:30:00;;;;;;;6.10;5.60;;;25.30;45.30;;;;;;5071720;28;20484;-82
2021/06/23 12:32:42;;;;;;;5.93;5.53;;;25.10;46.70;;;;;;5071535;28;20956;-80
2021/06/23 12:35:24;;;;;;;5.83;5.33;;;25.00;46.10;;;;;;5073102;28;20451;-82
2021/06/23 12:37:51;;;;;;;5.13;4.63;;;25.30;45.90;;;;;;5074075;28;20485;-82
2021/06/23 12:40:19;;;;;;;5.00;4.70;;;25.60;43.90;;;;;;5070104;28;20420;-82
2021/06/23 12:42:46;;;;;;;5.70;5.30;;;25.70;44.00;;;;;;5071953;28;20438;-81
2021/06/23 12:45:14;;;;;;;6.10;5.67;;;25.60;43.90;;;;;;5072443;28;20482;-82
2021/06/23 12:47:41;;;;;;;6.73;6.13;;;26.00;44.20;;;;;;5066497;28;20444;-83
2021/06/23 12:50:10;;;;;;;6.80;6.20;;;26.40;44.50;;;;;;5071642;28;20478;-80
2021/06/23 12:52:39;;;;;;;7.30;6.70;;;26.00;44.20;;;;;;5072792;28;20547;-82
2021/06/23 12:55:06;;;;;;;6.50;6.00;;;26.20;44.30;;;;;;5070089;28;20564;-82